Time;durP1;ratioP1;P1;durP2;ratioP2;P2;SDS_P1;SDS_P2;PMS_P1;PMS_P2;Temp;Humidity;BMP_temperature;BMP_pressure;BME280_temperature;BME280_humidity;BME280_pressure;Samples;Min_cycle;Max_cycle;Signal;HPM_P1;HPM_P2
2021/12/31 00:00:08;;;;;;;0.60;0.60;;;11.00;99.90;;;;;;4998644;28;20115;-79
2021/12/31 00:02:34;;;;;;;4.15;1.38;;;11.00;99.90;;;;;;5000016;28;20041;-79
2021/12/31 00:04:59;;;;;;;0.50;0.50;;;11.00;99.90;;;;;;4998514;28;20148;-79
2021/12/31 00:07:25;;;;;;;1.52;1.30;;;11.00;99.90;;;;;;4998202;28;20317;-79
2021/12/31 00:09:50;;;;;;;3.42;0.77;;;11.00;99.90;;;;;;4996897;28;20385;-79
2021/12/31 00:12:16;;;;;;;13.15;1.17;;;11.10;99.90;;;;;;4999131;28;20444;-79
2021/12/31 00:14:42;;;;;;;4.13;1.70;;;11.00;99.90;;;;;;4997641;28;21278;-79
2021/12/31 00:17:07;;;;;;;3.60;1.25;;;11.00;99.90;;;;;;4998953;28;20042;-79
2021/12/31 00:19:39;;;;;;;1.83;1.10;;;11.00;99.90;;;;;;4999308;28;20076;-79
2021/12/31 00:22:24;;;;;;;0.60;0.60;;;11.00;99.90;;;;;;4998555;28;20104;-79
2021/12/31 00:24:50;;;;;;;2.63;0.75;;;11.00;99.90;;;;;;5000005;28;20354;-79
2021/12/31 00:27:15;;;;;;;3.10;1.15;;;11.00;99.90;;;;;;4999566;28;20440;-79
2021/12/31 00:29:41;;;;;;;3.45;2.30;;;11.00;99.90;;;;;;4983317;28;20049;-79
2021/12/31 00:32:06;;;;;;;0.90;0.88;;;11.00;99.90;;;;;;4985677;28;20072;-79
2021/12/31 00:34:32;;;;;;;4.05;3.15;;;11.00;99.90;;;;;;5003209;28;20463;-79
2021/12/31 00:36:57;;;;;;;2.58;1.27;;;11.00;99.90;;;;;;5002196;28;20515;-79
2021/12/31 00:39:23;;;;;;;4.07;1.10;;;11.00;99.90;;;;;;5003024;28;20077;-79
2021/12/31 00:41:48;;;;;;;1.35;1.27;;;11.00;99.90;;;;;;5004005;28;20084;-79
2021/12/31 00:44:14;;;;;;;2.13;0.82;;;11.00;99.90;;;;;;5001558;28;20042;-80
2021/12/31 00:46:40;;;;;;;1.17;0.77;;;11.10;99.90;;;;;;5000218;28;20052;-79
2021/12/31 00:49:06;;;;;;;5.28;1.13;;;11.10;99.90;;;;;;5002433;28;20100;-79
2021/12/31 00:51:32;;;;;;;0.77;0.77;;;11.00;99.90;;;;;;5002508;28;20050;-79
2021/12/31 00:53:58;;;;;;;0.30;0.30;;;11.10;99.90;;;;;;5002881;28;20030;-80
2021/12/31 00:56:24;;;;;;;0.70;0.68;;;11.10;99.90;;;;;;5002657;28;20577;-79
2021/12/31 00:58:49;;;;;;;4.57;0.93;;;11.10;99.90;;;;;;5003407;28;20080;-79
2021/12/31 01:01:20;;;;;;;1.83;0.52;;;11.10;99.90;;;;;;4985553;28;20473;-79
2021/12/31 01:03:47;;;;;;;0.80;0.80;;;11.10;99.90;;;;;;4984976;28;20107;-79
2021/12/31 01:06:13;;;;;;;4.53;1.55;;;11.10;99.90;;;;;;4984548;28;20556;-79
2021/12/31 01:08:40;;;;;;;0.55;0.55;;;11.10;99.90;;;;;;4985384;28;20044;-79
2021/12/31 01:11:06;;;;;;;1.10;1.10;;;11.20;99.90;;;;;;5002703;28;20038;-79
2021/12/31 01:13:57;;;;;;;1.00;0.80;;;11.20;99.90;;;;;;5003045;28;20033;-79
2021/12/31 01:16:19;;;;;;;6.20;1.33;;;11.20;99.90;;;;;;5003008;28;20050;-79
2021/12/31 01:21:17;;;;;;;1.77;1.48;;;11.20;99.90;;;;;;5002141;28;20499;-80
2021/12/31 01:23:44;;;;;;;0.60;0.60;;;11.20;99.90;;;;;;5000105;28;20797;-79
2021/12/31 01:26:09;;;;;;;2.05;1.88;;;11.20;99.90;;;;;;4983718;28;20067;-79
2021/12/31 01:28:36;;;;;;;2.28;1.02;;;11.20;99.90;;;;;;4984767;28;20038;-79
2021/12/31 01:31:02;;;;;;;16.52;2.35;;;11.20;99.90;;;;;;5001365;28;20110;-80
2021/12/31 01:33:28;;;;;;;2.30;1.35;;;11.20;99.90;;;;;;4984299;28;20057;-79
2021/12/31 01:35:53;;;;;;;2.05;1.58;;;11.20;99.90;;;;;;5001333;28;20243;-80
2021/12/31 01:38:19;;;;;;;0.30;0.30;;;11.20;99.90;;;;;;5003024;28;20068;-79
2021/12/31 01:40:45;;;;;;;3.60;0.73;;;11.20;99.90;;;;;;4984725;28;20522;-79
2021/12/31 01:43:12;;;;;;;0.50;0.50;;;11.20;99.90;;;;;;5001992;28;20241;-79
2021/12/31 01:45:44;;;;;;;2.60;1.88;;;11.20;99.90;;;;;;5002327;28;20448;-78
2021/12/31 01:48:22;;;;;;;0.88;0.88;;;11.20;99.90;;;;;;5002013;28;20564;-79
2021/12/31 01:50:49;;;;;;;4.45;1.20;;;11.20;99.90;;;;;;4983703;28;20089;-78
2021/12/31 01:53:18;;;;;;;7.32;1.73;;;11.20;99.90;;;;;;5001759;28;20046;-78
2021/12/31 01:55:44;;;;;;;1.65;1.10;;;11.20;99.90;;;;;;4984204;28;20045;-78
2021/12/31 01:58:12;;;;;;;2.28;0.57;;;11.20;99.90;;;;;;5002048;28;20591;-79
2021/12/31 02:00:38;;;;;;;1.05;1.05;;;11.20;99.90;;;;;;4981807;28;20050;-79
2021/12/31 02:03:05;;;;;;;1.45;0.98;;;11.10;99.90;;;;;;5000993;28;20038;-78
2021/12/31 02:05:30;;;;;;;1.13;1.10;;;11.20;99.90;;;;;;4983219;28;20326;-79
2021/12/31 02:07:58;;;;;;;0.68;0.68;;;11.20;99.90;;;;;;5001425;28;20432;-79
2021/12/31 02:10:24;;;;;;;1.42;1.33;;;11.20;99.90;;;;;;5001722;28;20413;-78
2021/12/31 02:12:50;;;;;;;1.42;1.10;;;11.20;99.90;;;;;;4999377;28;20129;-78
2021/12/31 02:15:17;;;;;;;4.45;0.65;;;11.20;99.90;;;;;;4989733;28;20196;-79
2021/12/31 02:17:44;;;;;;;0.40;0.40;;;11.20;99.90;;;;;;4986588;28;20074;-79
2021/12/31 02:20:11;;;;;;;0.32;0.32;;;11.20;99.90;;;;;;5000384;28;20046;-79
2021/12/31 02:22:38;;;;;;;1.38;1.17;;;11.20;99.90;;;;;;5001304;28;20507;-82
2021/12/31 02:25:08;;;;;;;0.40;0.40;;;11.20;99.90;;;;;;5000771;28;20037;-82
2021/12/31 02:27:39;;;;;;;0.25;0.22;;;11.20;99.90;;;;;;5001881;28;20420;-82
2021/12/31 02:30:07;;;;;;;5.35;0.98;;;11.20;99.90;;;;;;5001196;28;20050;-82
2021/12/31 02:32:33;;;;;;;0.40;0.40;;;11.20;99.90;;;;;;5001575;28;20076;-82
2021/12/31 02:34:58;;;;;;;1.13;1.13;;;11.20;99.90;;;;;;5000029;28;20431;-82
2021/12/31 02:37:24;;;;;;;1.83;0.80;;;11.20;99.90;;;;;;4983838;28;20050;-82
2021/12/31 02:39:50;;;;;;;1.15;1.10;;;11.20;99.90;;;;;;4983968;28;20042;-82
2021/12/31 02:42:15;;;;;;;1.55;1.45;;;11.20;99.90;;;;;;5000779;28;20540;-81
2021/12/31 02:44:42;;;;;;;1.23;1.13;;;11.20;99.90;;;;;;5001338;28;20258;-82
2021/12/31 02:47:08;;;;;;;1.45;1.20;;;11.20;99.90;;;;;;5000997;28;20250;-82
2021/12/31 02:49:36;;;;;;;1.38;1.10;;;11.30;99.90;;;;;;4996683;28;20057;-82
2021/12/31 02:52:09;;;;;;;2.17;1.58;;;11.30;99.90;;;;;;4999919;28;20441;-82
2021/12/31 02:54:37;;;;;;;4.78;0.40;;;11.30;99.90;;;;;;5001108;28;20049;-82
2021/12/31 02:57:05;;;;;;;0.30;0.30;;;11.30;99.90;;;;;;4982915;28;20245;-82
2021/12/31 02:59:32;;;;;;;2.00;1.15;;;11.30;99.90;;;;;;4995119;28;20258;-82
2021/12/31 03:01:58;;;;;;;2.63;1.20;;;11.30;99.90;;;;;;4996164;28;20105;-82
2021/12/31 03:04:25;;;;;;;1.33;1.02;;;11.20;99.90;;;;;;5000312;28;20050;-82
2021/12/31 03:06:54;;;;;;;0.68;0.68;;;11.30;99.90;;;;;;4996966;28;20417;-78
2021/12/31 03:09:23;;;;;;;0.60;0.60;;;11.20;99.90;;;;;;5000943;28;20513;-81
2021/12/31 03:11:52;;;;;;;1.25;1.15;;;11.20;99.90;;;;;;4998870;28;20042;-81
2021/12/31 03:14:20;;;;;;;2.63;0.38;;;11.30;99.90;;;;;;4982337;28;20139;-82
2021/12/31 03:16:47;;;;;;;0.38;0.38;;;11.20;99.90;;;;;;4999825;28;20153;-81
2021/12/31 03:19:13;;;;;;;0.90;0.85;;;11.20;99.90;;;;;;4983038;28;20056;-82
2021/12/31 03:21:39;;;;;;;5.97;0.90;;;11.20;99.90;;;;;;4999605;28;20046;-82
2021/12/31 03:24:04;;;;;;;2.33;1.85;;;11.20;99.90;;;;;;5000190;28;20045;-83
2021/12/31 03:26:30;;;;;;;3.60;0.90;;;11.20;99.90;;;;;;5000206;28;20140;-82
2021/12/31 03:28:56;;;;;;;0.88;0.70;;;11.20;99.90;;;;;;4982392;28;20046;-82
2021/12/31 03:31:22;;;;;;;3.92;1.50;;;11.20;99.90;;;;;;5000090;28;20042;-80
2021/12/31 03:33:47;;;;;;;0.47;0.47;;;11.20;99.90;;;;;;4983126;28;20052;-82
2021/12/31 03:36:13;;;;;;;1.50;1.25;;;11.20;99.90;;;;;;4999485;28;20089;-82
2021/12/31 03:38:38;;;;;;;10.88;1.77;;;11.20;99.90;;;;;;4983165;28;20073;-82
2021/12/31 03:41:04;;;;;;;0.63;0.63;;;11.20;99.90;;;;;;4999828;28;20052;-82
2021/12/31 03:43:29;;;;;;;1.02;1.02;;;11.20;99.90;;;;;;5000066;28;20121;-82
2021/12/31 03:45:55;;;;;;;0.70;0.70;;;11.20;99.90;;;;;;4999751;28;20049;-82
2021/12/31 03:48:21;;;;;;;20.58;1.25;;;11.20;99.90;;;;;;5000173;28;20038;-81
2021/12/31 03:50:46;;;;;;;0.40;0.40;;;11.20;99.90;;;;;;4977676;28;20544;-82
2021/12/31 03:53:14;;;;;;;16.25;2.72;;;11.20;99.90;;;;;;4999236;28;20350;-83
2021/12/31 03:55:41;;;;;;;2.83;1.40;;;11.20;99.90;;;;;;5000406;28;20046;-82
2021/12/31 03:58:06;;;;;;;1.05;0.75;;;11.20;99.90;;;;;;4999716;28;20038;-82
2021/12/31 04:00:32;;;;;;;1.85;0.70;;;11.30;99.90;;;;;;4981902;28;20511;-82
2021/12/31 04:03:04;;;;;;;1.75;1.08;;;11.30;99.90;;;;;;4999344;28;20046;-82
2021/12/31 04:05:29;;;;;;;0.68;0.68;;;11.30;99.90;;;;;;4998153;28;20404;-82
2021/12/31 04:07:55;;;;;;;7.43;1.42;;;11.30;99.90;;;;;;4997970;28;20038;-82
2021/12/31 04:10:23;;;;;;;6.65;2.08;;;11.30;99.90;;;;;;4999765;28;20041;-82
2021/12/31 04:12:48;;;;;;;6.30;0.82;;;11.30;99.90;;;;;;4982430;28;20034;-82
2021/12/31 04:15:14;;;;;;;0.85;0.85;;;11.30;99.90;;;;;;4981994;28;20054;-82
2021/12/31 04:17:40;;;;;;;0.70;0.70;;;11.30;99.90;;;;;;4999562;28;20076;-82
2021/12/31 04:20:10;;;;;;;0.47;0.47;;;11.30;99.90;;;;;;4998827;28;20116;-82
2021/12/31 04:22:37;;;;;;;0.55;0.55;;;11.40;99.90;;;;;;4999704;28;20456;-82
2021/12/31 04:25:03;;;;;;;1.50;1.17;;;11.40;99.90;;;;;;4982240;28;20130;-81
2021/12/31 04:27:28;;;;;;;0.85;0.85;;;11.40;99.90;;;;;;4997257;28;20455;-82
2021/12/31 04:29:54;;;;;;;0.88;0.88;;;11.50;99.90;;;;;;4981412;28;20046;-82
2021/12/31 04:32:22;;;;;;;2.28;0.60;;;11.50;99.90;;;;;;4982149;28;20038;-82
2021/12/31 04:34:48;;;;;;;0.60;0.52;;;11.50;99.90;;;;;;4998943;28;20081;-82
2021/12/31 04:37:14;;;;;;;0.60;0.60;;;11.50;99.90;;;;;;4981496;28;20503;-82
2021/12/31 04:39:39;;;;;;;1.42;1.33;;;11.50;99.90;;;;;;4999407;28;20042;-82
2021/12/31 04:42:05;;;;;;;0.65;0.63;;;11.50;99.90;;;;;;4998905;28;20038;-82
2021/12/31 04:44:31;;;;;;;2.17;1.25;;;11.50;99.90;;;;;;4982168;28;20050;-82
2021/12/31 04:46:56;;;;;;;0.65;0.65;;;11.50;99.90;;;;;;4981525;28;20069;-82
2021/12/31 04:49:22;;;;;;;0.85;0.85;;;11.50;99.90;;;;;;4998948;28;20068;-82
2021/12/31 04:51:48;;;;;;;0.60;0.60;;;11.50;99.90;;;;;;4982648;28;20057;-82
2021/12/31 04:54:15;;;;;;;1.25;1.15;;;11.50;99.90;;;;;;4998699;28;20084;-82
2021/12/31 04:56:44;;;;;;;0.30;0.30;;;11.50;99.90;;;;;;4999568;28;20343;-82
2021/12/31 04:59:10;;;;;;;0.98;0.75;;;11.40;99.90;;;;;;4981235;28;20038;-81
2021/12/31 05:01:36;;;;;;;2.15;0.93;;;11.40;99.90;;;;;;4981800;28;20053;-82
2021/12/31 05:04:01;;;;;;;1.92;0.93;;;11.40;99.90;;;;;;4995096;28;20053;-82
2021/12/31 05:06:27;;;;;;;0.90;0.90;;;11.40;99.90;;;;;;4998135;28;20463;-82
2021/12/31 05:08:53;;;;;;;0.68;0.68;;;11.40;99.90;;;;;;4998990;28;20092;-83
2021/12/31 05:11:18;;;;;;;0.55;0.55;;;11.40;99.90;;;;;;4999447;28;20045;-82
2021/12/31 05:13:44;;;;;;;0.77;0.77;;;11.40;99.90;;;;;;4999826;28;20485;-82
2021/12/31 05:16:09;;;;;;;1.40;0.88;;;11.40;99.90;;;;;;4983368;28;20183;-82
2021/12/31 05:18:35;;;;;;;0.50;0.50;;;11.40;99.90;;;;;;4984760;28;20053;-82
2021/12/31 05:21:00;;;;;;;0.80;0.38;;;11.40;99.90;;;;;;4984050;28;20048;-82
2021/12/31 05:23:26;;;;;;;0.55;0.55;;;11.40;99.90;;;;;;5002467;28;20595;-82
2021/12/31 05:25:52;;;;;;;1.02;0.88;;;11.40;99.90;;;;;;5002700;28;20049;-82
2021/12/31 05:28:18;;;;;;;1.55;0.50;;;11.40;99.90;;;;;;5003068;28;20042;-82
2021/12/31 05:30:44;;;;;;;1.25;1.15;;;11.40;99.90;;;;;;5002083;28;20056;-82
2021/12/31 05:33:09;;;;;;;6.93;1.13;;;11.40;99.90;;;;;;5002269;28;20046;-81
2021/12/31 05:35:35;;;;;;;2.28;1.23;;;11.40;99.90;;;;;;4968073;28;20049;-82
2021/12/31 05:38:00;;;;;;;2.67;1.25;;;11.40;99.90;;;;;;5001740;28;20049;-82
2021/12/31 05:40:26;;;;;;;6.10;1.30;;;11.40;99.90;;;;;;4984731;28;20046;-82
2021/12/31 05:42:52;;;;;;;2.30;0.80;;;11.40;99.90;;;;;;4984936;28;20145;-83
2021/12/31 05:45:18;;;;;;;0.55;0.55;;;11.40;99.90;;;;;;5001181;28;20054;-81
2021/12/31 05:47:44;;;;;;;0.32;0.30;;;11.40;99.90;;;;;;5002637;28;20038;-81
2021/12/31 05:50:19;;;;;;;0.30;0.30;;;11.40;99.90;;;;;;4983458;28;20046;-82
2021/12/31 05:52:46;;;;;;;0.20;0.20;;;11.40;99.90;;;;;;5002005;28;20046;-81
2021/12/31 05:55:11;;;;;;;1.55;1.45;;;11.40;99.90;;;;;;5001878;28;20385;-81
2021/12/31 05:57:37;;;;;;;0.35;0.35;;;11.40;99.90;;;;;;5002034;28;20061;-82
2021/12/31 06:00:03;;;;;;;0.38;0.38;;;11.40;99.90;;;;;;4984208;28;20052;-82
2021/12/31 06:02:29;;;;;;;0.45;0.40;;;11.40;99.90;;;;;;5002189;28;20046;-82
2021/12/31 06:04:54;;;;;;;0.50;0.50;;;11.40;99.90;;;;;;5000761;28;20377;-82
2021/12/31 06:07:20;;;;;;;0.55;0.55;;;11.40;99.90;;;;;;4984327;28;20425;-82
2021/12/31 06:09:45;;;;;;;0.90;0.50;;;11.40;99.90;;;;;;5001750;28;20058;-82
2021/12/31 06:12:11;;;;;;;0.85;0.85;;;11.40;99.90;;;;;;5001532;28;20525;-82
2021/12/31 06:14:37;;;;;;;0.35;0.35;;;11.40;99.90;;;;;;5001916;28;20744;-82
2021/12/31 06:17:06;;;;;;;0.50;0.50;;;11.40;99.90;;;;;;4983945;28;20077;-81
2021/12/31 06:19:33;;;;;;;1.05;0.68;;;11.40;99.90;;;;;;4997937;28;20255;-82
2021/12/31 06:21:59;;;;;;;2.05;0.90;;;11.40;99.90;;;;;;5001172;28;20040;-81
2021/12/31 06:24:25;;;;;;;0.65;0.32;;;11.40;99.90;;;;;;5001135;28;20038;-83
2021/12/31 06:26:50;;;;;;;0.40;0.40;;;11.30;99.90;;;;;;4983042;28;20089;-82
2021/12/31 06:29:16;;;;;;;2.40;1.33;;;11.40;99.90;;;;;;4983053;28;20050;-82
2021/12/31 06:31:41;;;;;;;0.85;0.57;;;11.30;99.90;;;;;;5000995;28;20538;-82
2021/12/31 06:34:07;;;;;;;0.32;0.32;;;11.30;99.90;;;;;;4982494;28;20416;-83
2021/12/31 06:36:32;;;;;;;0.25;0.25;;;11.30;99.90;;;;;;5001688;28;20409;-82
2021/12/31 06:39:01;;;;;;;1.02;0.93;;;11.30;99.90;;;;;;4983716;28;20040;-82
2021/12/31 06:41:27;;;;;;;0.40;0.40;;;11.30;99.90;;;;;;4983716;28;20053;-82
2021/12/31 06:43:52;;;;;;;2.75;0.98;;;11.30;99.90;;;;;;4983210;28;20390;-82
2021/12/31 06:46:20;;;;;;;0.30;0.30;;;11.30;99.90;;;;;;5001647;28;20124;-82
2021/12/31 06:48:46;;;;;;;0.40;0.30;;;11.20;99.90;;;;;;5000629;28;20084;-82
2021/12/31 06:51:11;;;;;;;0.55;0.55;;;11.30;99.90;;;;;;5000125;28;20041;-82
2021/12/31 06:53:37;;;;;;;0.50;0.50;;;11.20;99.90;;;;;;5000952;28;20566;-82
2021/12/31 06:56:03;;;;;;;0.90;0.75;;;11.20;99.90;;;;;;4980197;28;20726;-81
2021/12/31 06:58:28;;;;;;;3.20;1.20;;;11.20;99.90;;;;;;4997859;28;20121;-81
2021/12/31 07:00:54;;;;;;;0.17;0.17;;;11.20;99.90;;;;;;5000590;28;20697;-82
2021/12/31 07:03:19;;;;;;;1.13;1.13;;;11.20;99.90;;;;;;5001383;28;20045;-81
2021/12/31 07:05:45;;;;;;;0.50;0.50;;;11.10;99.90;;;;;;4999678;28;20038;-81
2021/12/31 07:08:11;;;;;;;1.10;0.80;;;11.10;99.90;;;;;;5000095;28;20104;-81
2021/12/31 07:10:37;;;;;;;0.70;0.70;;;11.10;99.90;;;;;;5000265;28;20046;-81
2021/12/31 07:13:05;;;;;;;1.40;0.93;;;11.10;99.90;;;;;;4983001;28;20041;-81
2021/12/31 07:15:31;;;;;;;3.03;0.63;;;11.10;99.90;;;;;;5000606;28;20054;-81
2021/12/31 07:17:56;;;;;;;1.70;0.88;;;11.10;99.90;;;;;;4982884;28;20227;-81
2021/12/31 07:20:22;;;;;;;0.93;0.57;;;11.10;99.90;;;;;;4982386;28;20440;-82
2021/12/31 07:22:48;;;;;;;0.20;0.20;;;11.10;99.90;;;;;;5001022;28;20419;-81
2021/12/31 07:25:14;;;;;;;0.43;0.43;;;11.10;99.90;;;;;;5000043;28;20519;-81
2021/12/31 07:27:39;;;;;;;0.60;0.60;;;11.10;99.90;;;;;;5000220;28;20077;-81
2021/12/31 07:30:05;;;;;;;1.38;0.80;;;11.00;99.90;;;;;;4982344;28;20448;-81
2021/12/31 07:32:37;;;;;;;0.60;0.60;;;11.00;99.90;;;;;;4997599;28;20680;-81
2021/12/31 07:35:04;;;;;;;0.63;0.40;;;11.00;99.90;;;;;;4993788;28;20045;-82
2021/12/31 07:37:29;;;;;;;0.68;0.68;;;11.00;99.90;;;;;;4999670;28;20052;-81
2021/12/31 07:40:01;;;;;;;3.70;1.65;;;11.00;99.90;;;;;;4981691;28;20053;-81
2021/12/31 07:42:26;;;;;;;0.95;0.95;;;11.00;99.90;;;;;;4982238;28;20076;-81
2021/12/31 07:44:52;;;;;;;0.70;0.70;;;10.90;99.90;;;;;;4999441;28;20046;-81
2021/12/31 07:47:18;;;;;;;1.38;1.27;;;10.90;99.90;;;;;;5000607;28;20265;-81
2021/12/31 07:49:43;;;;;;;0.73;0.73;;;10.90;99.90;;;;;;4999152;28;20392;-81
2021/12/31 07:52:09;;;;;;;0.30;0.30;;;10.90;99.90;;;;;;4982865;28;20077;-81
2021/12/31 07:54:34;;;;;;;1.38;0.85;;;10.90;99.90;;;;;;5000410;28;20081;-81
2021/12/31 07:57:00;;;;;;;0.77;0.77;;;10.90;99.90;;;;;;4982213;28;20052;-82
2021/12/31 07:59:25;;;;;;;0.70;0.70;;;10.90;99.90;;;;;;5000189;28;20049;-81
2021/12/31 08:01:51;;;;;;;12.52;1.30;;;10.90;99.90;;;;;;4982580;28;20049;-81
2021/12/31 08:04:16;;;;;;;0.63;0.63;;;10.90;99.90;;;;;;4965807;28;20053;-81
2021/12/31 08:06:42;;;;;;;1.55;0.43;;;10.90;99.90;;;;;;5000005;28;20058;-81
2021/12/31 08:09:07;;;;;;;1.20;0.55;;;10.90;99.90;;;;;;4999235;28;20041;-81
2021/12/31 08:11:33;;;;;;;1.67;1.25;;;11.00;99.90;;;;;;4997604;28;20549;-81
2021/12/31 08:13:59;;;;;;;1.92;1.83;;;11.00;99.90;;;;;;4999366;28;20396;-82
2021/12/31 08:16:24;;;;;;;0.73;0.70;;;11.00;99.90;;;;;;4998637;28;20046;-82
2021/12/31 08:18:50;;;;;;;1.08;0.98;;;11.00;99.90;;;;;;4998533;28;20038;-81
2021/12/31 08:21:15;;;;;;;0.40;0.40;;;11.00;99.90;;;;;;4998800;28;20077;-81
2021/12/31 08:23:41;;;;;;;0.95;0.90;;;11.00;99.90;;;;;;5000183;28;20512;-81
2021/12/31 08:26:07;;;;;;;0.88;0.88;;;11.00;99.90;;;;;;4999524;28;20125;-81
2021/12/31 08:28:32;;;;;;;1.90;1.80;;;11.10;99.90;;;;;;4982050;28;20172;-81
2021/12/31 08:30:58;;;;;;;0.32;0.32;;;11.10;99.90;;;;;;4999456;28;20817;-81
2021/12/31 08:33:25;;;;;;;0.75;0.75;;;11.10;99.90;;;;;;4999102;28;20077;-81
2021/12/31 08:35:51;;;;;;;1.00;0.77;;;11.10;99.90;;;;;;4981513;28;20054;-81
2021/12/31 08:38:16;;;;;;;0.98;0.98;;;11.10;99.90;;;;;;4999882;28;20042;-81
2021/12/31 08:40:42;;;;;;;6.32;1.40;;;11.10;99.90;;;;;;4999316;28;20115;-81
2021/12/31 08:43:07;;;;;;;0.95;0.95;;;11.10;99.90;;;;;;4981700;28;20670;-81
2021/12/31 08:45:33;;;;;;;0.68;0.68;;;11.10;99.90;;;;;;4982053;28;20093;-81
2021/12/31 08:48:00;;;;;;;1.00;0.90;;;11.10;99.90;;;;;;4996112;28;20046;-81
2021/12/31 08:50:27;;;;;;;4.13;0.90;;;11.10;99.90;;;;;;4998833;28;20096;-81
2021/12/31 08:52:53;;;;;;;0.43;0.43;;;11.10;99.90;;;;;;4985037;28;20064;-82
2021/12/31 08:55:18;;;;;;;0.60;0.60;;;11.10;99.90;;;;;;5003525;28;20044;-81
2021/12/31 08:57:44;;;;;;;0.55;0.55;;;11.10;99.90;;;;;;5002841;28;20038;-81
2021/12/31 09:00:10;;;;;;;0.68;0.68;;;11.10;99.90;;;;;;5002902;28;20042;-81
2021/12/31 09:02:38;;;;;;;0.63;0.63;;;11.10;99.90;;;;;;4986023;28;20045;-81
2021/12/31 09:05:04;;;;;;;0.68;0.68;;;11.10;99.90;;;;;;5001713;28;20440;-81
2021/12/31 09:07:30;;;;;;;2.33;1.10;;;11.10;99.90;;;;;;5003329;28;20615;-81
2021/12/31 09:09:55;;;;;;;0.70;0.70;;;11.10;99.90;;;;;;5002385;28;20165;-82
2021/12/31 09:12:21;;;;;;;2.17;1.90;;;11.10;99.90;;;;;;5003751;28;20046;-81
2021/12/31 09:14:46;;;;;;;0.50;0.43;;;11.10;99.90;;;;;;5003165;28;20056;-81
2021/12/31 09:17:12;;;;;;;0.40;0.40;;;11.10;99.90;;;;;;4984556;28;20385;-82
2021/12/31 09:19:38;;;;;;;1.13;1.05;;;11.10;99.90;;;;;;5006909;28;20607;-82
2021/12/31 09:22:04;;;;;;;0.75;0.75;;;11.10;99.90;;;;;;5003156;28;20386;-82
2021/12/31 09:24:30;;;;;;;0.57;0.57;;;11.10;99.90;;;;;;4999991;28;20042;-81
2021/12/31 09:26:56;;;;;;;0.88;0.88;;;11.10;99.90;;;;;;5005049;28;20108;-82
2021/12/31 09:29:23;;;;;;;5.78;0.70;;;11.10;99.90;;;;;;5001502;28;20436;-81
2021/12/31 09:31:50;;;;;;;4.00;1.00;;;11.20;99.90;;;;;;5002499;28;20054;-82
2021/12/31 09:34:16;;;;;;;0.75;0.75;;;11.10;99.90;;;;;;5000395;28;20089;-80
2021/12/31 09:36:42;;;;;;;1.02;1.02;;;11.10;99.90;;;;;;5002910;28;20571;-80
2021/12/31 09:39:07;;;;;;;1.05;1.00;;;11.10;99.90;;;;;;5002941;28;20042;-81
2021/12/31 09:41:33;;;;;;;0.65;0.65;;;11.10;99.90;;;;;;5001132;28;20085;-81
2021/12/31 09:43:59;;;;;;;3.25;1.58;;;11.10;99.90;;;;;;5002402;28;20049;-80
2021/12/31 09:46:24;;;;;;;2.85;0.70;;;11.10;99.90;;;;;;4969711;28;20052;-79
2021/12/31 09:48:50;;;;;;;5.72;1.05;;;11.10;99.90;;;;;;5002521;28;20073;-80
2021/12/31 09:51:16;;;;;;;0.75;0.75;;;11.10;99.90;;;;;;4985756;28;20049;-81
2021/12/31 09:53:42;;;;;;;1.15;0.57;;;11.00;99.90;;;;;;4985541;28;20046;-80
2021/12/31 09:56:08;;;;;;;0.50;0.50;;;11.00;99.90;;;;;;5003032;28;20381;-79
2021/12/31 09:58:35;;;;;;;1.52;1.45;;;11.00;99.90;;;;;;5003227;28;20132;-80
2021/12/31 10:01:01;;;;;;;0.93;0.85;;;11.00;99.90;;;;;;4999457;28;20038;-80
2021/12/31 10:03:29;;;;;;;2.75;1.27;;;11.00;99.90;;;;;;5002196;28;20163;-79
2021/12/31 10:06:09;;;;;;;1.40;0.57;;;11.00;99.90;;;;;;5002824;28;20049;-80
2021/12/31 10:08:43;;;;;;;2.58;1.75;;;11.00;99.90;;;;;;5001774;28;20061;-80
2021/12/31 10:11:17;;;;;;;1.38;1.27;;;11.00;99.90;;;;;;4984706;28;20049;-79
2021/12/31 10:13:52;;;;;;;1.02;0.75;;;11.00;99.90;;;;;;5003139;28;20105;-79
2021/12/31 10:16:28;;;;;;;0.57;0.57;;;10.90;99.90;;;;;;5002951;28;20076;-80
2021/12/31 10:19:18;;;;;;;0.52;0.52;;;10.90;99.90;;;;;;5002090;28;20119;-80
2021/12/31 10:21:51;;;;;;;3.42;1.20;;;10.90;99.90;;;;;;5006063;28;20048;-79
2021/12/31 10:24:22;;;;;;;;;;;10.90;99.90;;;;;;5003033;28;20125;-81
2021/12/31 10:26:49;;;;;;;1.63;0.85;;;10.90;99.90;;;;;;5019153;28;20295;-80
2021/12/31 10:29:14;;;;;;;1.45;0.52;;;10.90;99.90;;;;;;4993198;28;20096;-80
2021/12/31 10:31:44;;;;;;;0.88;0.88;;;10.90;99.90;;;;;;5004788;28;21241;-80
2021/12/31 10:34:30;;;;;;;0.63;0.63;;;10.90;99.90;;;;;;4985809;28;20100;-79
2021/12/31 10:36:57;;;;;;;3.92;0.63;;;10.90;99.90;;;;;;5004042;28;20050;-79
2021/12/31 10:39:25;;;;;;;10.27;0.88;;;10.90;99.90;;;;;;5000905;28;20038;-83
2021/12/31 10:42:04;;;;;;;1.30;0.95;;;10.90;99.90;;;;;;4989010;28;20052;-79
2021/12/31 10:44:49;;;;;;;0.57;0.57;;;10.90;99.90;;;;;;5000393;28;20068;-81
2021/12/31 10:47:20;;;;;;;0.50;0.50;;;10.90;99.90;;;;;;4994268;28;20443;-79
2021/12/31 10:50:04;;;;;;;0.35;0.35;;;10.90;99.90;;;;;;4988466;28;20054;-80
2021/12/31 10:52:41;;;;;;;1.20;1.08;;;10.90;99.90;;;;;;4984236;28;20038;-80
2021/12/31 10:55:41;;;;;;;11.07;1.33;;;10.90;99.90;;;;;;5000454;28;20412;-79
2021/12/31 10:58:03;;;;;;;0.55;0.55;;;10.90;99.90;;;;;;4980309;28;20056;-80
2021/12/31 11:00:37;;;;;;;2.13;1.55;;;10.90;99.90;;;;;;5001848;28;20052;-83
2021/12/31 11:03:04;;;;;;;2.72;0.95;;;10.90;99.90;;;;;;4998863;28;20045;-83
2021/12/31 11:05:30;;;;;;;1.75;1.63;;;10.90;99.90;;;;;;5000283;28;20512;-82
2021/12/31 11:08:00;;;;;;;0.73;0.73;;;10.90;99.90;;;;;;5000294;28;20084;-82
2021/12/31 11:10:28;;;;;;;1.70;0.93;;;10.80;99.90;;;;;;4987901;28;20042;-86
2021/12/31 11:12:55;;;;;;;1.45;0.85;;;10.80;99.90;;;;;;4983470;28;20052;-87
2021/12/31 11:15:21;;;;;;;0.68;0.68;;;10.80;99.90;;;;;;5001885;28;20037;-86
2021/12/31 11:17:52;;;;;;;0.73;0.73;;;10.80;99.90;;;;;;5002169;28;20029;-85
2021/12/31 11:20:24;;;;;;;0.75;0.43;;;10.80;99.90;;;;;;4988151;28;20068;-86
2021/12/31 11:22:49;;;;;;;;;;;10.80;99.90;;;;;;4989840;28;20214;-86
2021/12/31 11:25:26;;;;;;;1.23;1.20;;;10.80;99.90;;;;;;4992523;28;20019;-89
2021/12/31 11:27:57;;;;;;;1.85;0.98;;;10.80;99.90;;;;;;5015639;28;20046;-91
2021/12/31 11:30:37;;;;;;;2.38;1.77;;;10.80;99.90;;;;;;5008403;28;20038;-80
2021/12/31 11:33:05;;;;;;;0.73;0.73;;;10.80;99.90;;;;;;4966798;28;20041;-81
2021/12/31 11:35:38;;;;;;;0.80;0.80;;;10.80;99.90;;;;;;4982786;28;20068;-81
2021/12/31 11:38:36;;;;;;;1.35;0.65;;;10.80;99.90;;;;;;5001581;28;20523;-80
2021/12/31 11:41:03;;;;;;;0.55;0.55;;;10.80;99.90;;;;;;5017127;28;20072;-80
2021/12/31 11:43:30;;;;;;;0.50;0.50;;;10.80;99.90;;;;;;5020363;28;20041;-82
2021/12/31 11:46:12;;;;;;;2.08;1.05;;;10.80;99.90;;;;;;4987883;28;20050;-81
2021/12/31 11:48:44;;;;;;;0.45;0.45;;;10.70;99.90;;;;;;5001076;28;20074;-84
2021/12/31 11:51:18;;;;;;;0.40;0.40;;;10.80;99.90;;;;;;4985538;28;20053;-81
2021/12/31 11:53:56;;;;;;;0.88;0.88;;;10.80;99.90;;;;;;4997252;28;20556;-85
2021/12/31 11:56:34;;;;;;;1.60;1.00;;;10.80;99.90;;;;;;4964693;28;20069;-85
2021/12/31 12:01:37;;;;;;;1.00;1.00;;;10.70;99.90;;;;;;4984015;28;20037;-84
2021/12/31 12:04:22;;;;;;;0.60;0.60;;;10.70;99.90;;;;;;4995080;28;20042;-86
2021/12/31 12:07:04;;;;;;;0.65;0.65;;;10.80;99.90;;;;;;4990043;28;20056;-86
2021/12/31 12:09:36;;;;;;;0.68;0.68;;;10.80;99.90;;;;;;4981772;28;20050;-84
2021/12/31 12:12:11;;;;;;;3.10;0.60;;;10.70;99.90;;;;;;4979979;28;20053;-84
2021/12/31 12:14:45;;;;;;;0.55;0.55;;;10.80;99.90;;;;;;4997894;28;20141;-84
2021/12/31 12:17:39;;;;;;;1.17;0.60;;;10.80;99.90;;;;;;4998064;28;20042;-90
2021/12/31 12:20:11;;;;;;;0.47;0.40;;;10.80;99.90;;;;;;5014522;28;20053;-84
2021/12/31 12:22:39;;;;;;;1.10;1.00;;;10.70;99.90;;;;;;5020395;28;20045;-84
2021/12/31 12:25:30;;;;;;;1.25;1.13;;;10.80;99.90;;;;;;5021167;28;20110;-84
2021/12/31 12:28:06;;;;;;;2.38;0.90;;;10.70;99.90;;;;;;5006504;28;20112;-84
2021/12/31 12:30:35;;;;;;;0.82;0.82;;;10.70;99.90;;;;;;4989015;28;20401;-84
2021/12/31 12:35:39;;;;;;;0.50;0.50;;;10.80;99.90;;;;;;4983924;28;20062;-85
2021/12/31 12:38:40;;;;;;;4.35;1.38;;;10.70;99.90;;;;;;5003593;28;20545;-96
2021/12/31 12:41:09;;;;;;;2.40;0.75;;;10.70;99.90;;;;;;4936204;28;20046;-87
2021/12/31 12:43:46;;;;;;;0.30;0.30;;;10.70;99.90;;;;;;4974447;28;20353;-89
2021/12/31 12:46:14;;;;;;;3.53;0.90;;;10.70;99.90;;;;;;4969976;28;20178;-89
2021/12/31 12:48:59;;;;;;;0.70;0.70;;;10.70;99.90;;;;;;5003009;28;20045;-89
2021/12/31 12:51:28;;;;;;;1.05;1.05;;;10.70;99.90;;;;;;4978929;28;20124;-87
2021/12/31 12:53:54;;;;;;;0.63;0.63;;;10.70;99.90;;;;;;4982917;28;20038;-85
2021/12/31 12:56:21;;;;;;;1.15;0.98;;;10.70;99.90;;;;;;5007320;28;20064;-86
2021/12/31 12:59:00;;;;;;;2.00;1.00;;;10.70;99.90;;;;;;5004828;28;20050;-87